createdAt,value
2023-11-30T00:00:30.901Z,1.86
2023-11-30T00:05:37.492Z,1.83
2023-11-30T00:10:44.084Z,1.81
2023-11-30T00:15:50.634Z,1.86
2023-11-30T00:20:57.127Z,1.83
2023-11-30T00:26:03.628Z,1.83
2023-11-30T00:31:10.062Z,1.86
2023-11-30T00:36:16.694Z,1.85
2023-11-30T00:41:22.978Z,1.84
2023-11-30T00:46:29.895Z,1.84
2023-11-30T00:51:36.340Z,1.85
2023-11-30T00:56:42.967Z,1.87
2023-11-30T01:01:49.515Z,1.87
2023-11-30T01:06:56.014Z,1.86
2023-11-30T01:12:02.430Z,1.87
2023-11-30T01:17:08.914Z,1.86
2023-11-30T01:22:15.461Z,1.86
2023-11-30T01:27:22.075Z,1.79
2023-11-30T01:32:28.633Z,1.78
2023-11-30T01:37:35.241Z,1.76
2023-11-30T01:47:48.529Z,1.78
2023-11-30T01:52:56.008Z,1.81
2023-11-30T01:58:02.579Z,1.86
2023-11-30T02:08:16.077Z,1.83
2023-11-30T02:13:22.664Z,1.77
2023-11-30T02:18:29.376Z,1.67
2023-11-30T02:23:35.790Z,1.58
2023-11-30T02:28:42.219Z,1.57
2023-11-30T02:33:48.635Z,1.62
2023-11-30T02:38:55.486Z,1.61
2023-11-30T02:44:01.929Z,1.59
2023-11-30T02:49:08.161Z,1.59
2023-11-30T02:54:14.974Z,1.61
2023-11-30T02:59:21.229Z,1.6
2023-11-30T03:04:27.821Z,1.6
2023-11-30T03:09:34.650Z,1.6
2023-11-30T03:19:47.751Z,1.61
2023-11-30T03:24:54.278Z,1.63
2023-11-30T03:35:07.355Z,1.63
2023-11-30T03:40:13.865Z,1.59
2023-11-30T03:45:20.932Z,1.61
2023-11-30T03:50:30.353Z,1.62
2023-11-30T03:55:36.994Z,1.61
2023-11-30T04:00:43.650Z,1.63
2023-11-30T04:05:50.327Z,1.61
2023-11-30T04:10:56.841Z,1.58
2023-11-30T04:16:03.451Z,1.53
2023-11-30T04:21:09.949Z,1.47
2023-11-30T04:26:16.700Z,1.44
2023-11-30T04:41:47.526Z,1.42
2023-11-30T04:46:54.061Z,1.41
2023-11-30T04:52:00.256Z,1.4
2023-11-30T04:57:06.907Z,1.39
2023-11-30T05:02:13.312Z,1.36
2023-11-30T05:07:19.880Z,1.34
2023-11-30T05:12:26.559Z,1.31
2023-11-30T05:27:45.970Z,0.89
2023-11-30T05:32:52.378Z,0.71
2023-11-30T05:37:58.749Z,0.48
2023-11-30T05:43:05.259Z,0.24
2023-11-30T05:48:11.701Z,0
2023-11-30T05:53:17.973Z,-0.26
2023-11-30T05:58:24.545Z,-0.48
2023-11-30T06:08:37.635Z,-0.83
2023-11-30T06:13:44.235Z,-0.98
2023-11-30T06:18:50.640Z,-1.08
2023-11-30T06:23:57.274Z,-1.14
2023-11-30T06:29:04.166Z,-1.17
2023-11-30T06:34:10.697Z,-1.13
2023-11-30T06:39:17.219Z,-1.06
2023-11-30T06:44:23.723Z,-1.01
2023-11-30T06:49:30.179Z,-0.89
2023-11-30T06:54:36.730Z,-0.81
2023-11-30T06:59:43.181Z,-0.9
2023-11-30T07:04:50.022Z,-0.97
2023-11-30T07:09:57.469Z,-0.92
2023-11-30T07:15:04.047Z,-0.82
2023-11-30T07:20:10.662Z,-0.63
2023-11-30T07:25:17.027Z,-0.4
2023-11-30T07:30:23.617Z,-0.23
2023-11-30T07:35:30.185Z,-0.02
2023-11-30T07:40:36.727Z,0.07
2023-11-30T07:45:43.407Z,0.1
2023-11-30T07:50:49.868Z,0.13
2023-11-30T07:55:56.423Z,0.11
2023-11-30T08:01:03.315Z,0.09
2023-11-30T08:06:09.301Z,0.1
2023-11-30T08:11:15.750Z,0.12
2023-11-30T08:16:22.477Z,0.18
2023-11-30T08:21:29.283Z,0.35
2023-11-30T08:26:35.583Z,0.64
2023-11-30T08:31:42.191Z,0.93
2023-11-30T08:36:48.932Z,1.22
2023-11-30T08:41:55.568Z,1.44
2023-11-30T08:47:02.049Z,1.52
2023-11-30T08:52:08.757Z,1.63
2023-11-30T08:57:15.569Z,2.07
2023-11-30T09:07:28.591Z,2.26
2023-11-30T09:12:35.077Z,2.47
2023-11-30T09:17:41.875Z,2.78
2023-11-30T09:22:48.598Z,3.13
2023-11-30T09:27:55.372Z,3.43
2023-11-30T09:33:02.127Z,4.2
2023-11-30T09:38:08.859Z,4.28
2023-11-30T09:43:15.473Z,4.28
2023-11-30T09:53:28.624Z,4.55
2023-11-30T09:58:35.139Z,4.82
2023-11-30T10:03:41.867Z,4.84
2023-11-30T10:08:48.691Z,4.6
2023-11-30T10:13:57.101Z,4.77
2023-11-30T10:19:03.741Z,5.65
2023-11-30T10:24:09.028Z,7.21
2023-11-30T10:29:15.819Z,8
2023-11-30T10:34:22.230Z,7.57
2023-11-30T10:39:28.680Z,7.17
2023-11-30T10:44:35.384Z,6.98
2023-11-30T10:49:41.888Z,6.67
2023-11-30T10:54:48.427Z,6.21
2023-11-30T10:59:55.001Z,5.96
2023-11-30T11:05:01.678Z,5.57
2023-11-30T11:10:08.411Z,5.64
2023-11-30T11:15:15.981Z,5.67
2023-11-30T11:20:23.121Z,5.48
2023-11-30T11:25:27.858Z,5.49
2023-11-30T11:30:34.265Z,5.28
2023-11-30T11:35:40.789Z,5.11
2023-11-30T11:40:47.536Z,5.06
2023-11-30T11:45:54.406Z,5.35
2023-11-30T11:51:01.065Z,5.64
2023-11-30T11:56:10.272Z,5.7
2023-11-30T12:01:16.923Z,5.57
2023-11-30T12:06:23.481Z,5.62
2023-11-30T12:11:30.012Z,5.39
2023-11-30T12:16:36.761Z,5.43
2023-11-30T12:21:43.394Z,5.35
2023-11-30T12:26:49.993Z,5.3
2023-11-30T12:31:56.946Z,5.32
2023-11-30T12:37:03.269Z,5.44
2023-11-30T12:42:09.769Z,5.35
2023-11-30T12:47:16.161Z,5.29
2023-11-30T12:52:22.553Z,5.12
2023-11-30T12:57:28.974Z,5.09
2023-11-30T13:02:35.538Z,4.84
2023-11-30T13:07:41.823Z,4.8
2023-11-30T13:12:48.384Z,4.76
2023-11-30T13:17:54.834Z,4.56
2023-11-30T13:23:01.231Z,4.51
2023-11-30T13:28:07.786Z,4.45
2023-11-30T13:33:14.158Z,4.39
2023-11-30T13:38:20.728Z,4.37
2023-11-30T13:43:27.292Z,4.35
2023-11-30T13:48:33.884Z,4.25
2023-11-30T13:53:40.269Z,4.18
2023-11-30T13:58:46.872Z,4.1
2023-11-30T14:03:53.253Z,4.14
2023-11-30T14:08:59.546Z,4.2
2023-11-30T14:14:06.154Z,4.21
2023-11-30T14:24:19.235Z,4.09
2023-11-30T14:29:25.708Z,4.04
2023-11-30T14:34:32.263Z,3.9
2023-11-30T14:39:39.037Z,3.74
2023-11-30T14:44:56.484Z,3.58
2023-11-30T14:50:03.200Z,3.48
2023-11-30T14:55:09.668Z,3.36
2023-11-30T15:00:16.301Z,3.25
2023-11-30T15:05:22.639Z,3.09
2023-11-30T15:10:29.062Z,2.98
2023-11-30T15:15:35.453Z,2.83
2023-11-30T15:20:42.908Z,2.7
2023-11-30T15:25:48.273Z,2.52
2023-11-30T15:30:54.489Z,2.27
2023-11-30T15:36:00.854Z,1.99
2023-11-30T15:41:07.388Z,1.82
2023-11-30T15:46:14.004Z,1.76
2023-11-30T15:51:23.677Z,1.65
2023-11-30T15:56:30.183Z,1.62
2023-11-30T16:01:36.929Z,1.57
2023-11-30T16:06:43.542Z,1.55
2023-11-30T16:11:49.918Z,1.46
2023-11-30T16:16:56.672Z,1.41
2023-11-30T16:22:04.290Z,1.38
2023-11-30T16:27:10.847Z,1.49
2023-11-30T16:42:30.716Z,1.38
2023-11-30T16:47:37.295Z,1.33
2023-11-30T16:52:43.675Z,1.26
2023-11-30T16:57:50.438Z,1.16
2023-11-30T17:08:03.721Z,0.81
2023-11-30T17:13:10.055Z,0.63
2023-11-30T17:18:16.517Z,0.48
2023-11-30T17:23:22.908Z,0.41
2023-11-30T17:28:29.522Z,0.29
2023-11-30T17:33:36.160Z,0.28
2023-11-30T17:38:42.534Z,0.3
2023-11-30T17:43:49.078Z,0.39
2023-11-30T17:48:55.782Z,0.54
2023-11-30T17:54:02.360Z,0.56
2023-11-30T17:59:08.839Z,0.61
2023-11-30T18:04:15.468Z,0.63
2023-11-30T18:09:22.470Z,0.63
2023-11-30T18:14:28.476Z,0.59
2023-11-30T18:19:45.826Z,0.61
2023-11-30T18:24:52.574Z,0.64
2023-11-30T18:29:58.932Z,0.63
2023-11-30T18:35:06.382Z,0.65
2023-11-30T18:40:12.973Z,0.73
2023-11-30T18:45:19.408Z,0.81
2023-11-30T18:50:26.176Z,0.83
2023-11-30T18:55:32.567Z,0.83
2023-11-30T19:00:39.128Z,0.81
2023-11-30T19:05:45.663Z,0.83
2023-11-30T19:10:52.243Z,0.77
2023-11-30T19:15:58.781Z,0.72
2023-11-30T19:21:05.153Z,0.68
2023-11-30T19:26:11.724Z,0.66
2023-11-30T19:31:18.417Z,0.63
2023-11-30T19:36:24.707Z,0.61
2023-11-30T19:41:31.301Z,0.58
2023-11-30T19:46:37.871Z,0.51
2023-11-30T19:51:44.309Z,0.5
2023-11-30T19:56:50.666Z,0.44
2023-11-30T20:01:57.347Z,0.37
2023-11-30T20:07:03.597Z,0.22
2023-11-30T20:12:10.190Z,0.14
2023-11-30T20:17:16.696Z,0.09
2023-11-30T20:22:23.277Z,0.03
2023-11-30T20:27:29.794Z,0
2023-11-30T20:32:36.070Z,-0.12
2023-11-30T20:37:42.857Z,-0.21
2023-11-30T20:42:49.414Z,-0.25
2023-11-30T20:47:56.081Z,-0.24
2023-11-30T20:53:02.280Z,-0.18
2023-11-30T20:58:08.984Z,-0.1
2023-11-30T21:03:15.632Z,-0.04
2023-11-30T21:08:22.042Z,-0.07
2023-11-30T21:13:29.518Z,-0.18
2023-11-30T21:18:36.029Z,-0.37
2023-11-30T21:23:42.271Z,-0.56
2023-11-30T21:28:48.566Z,-0.72
2023-11-30T21:33:55.015Z,-0.8
2023-11-30T21:39:01.814Z,-0.7
2023-11-30T21:44:08.197Z,-0.61
2023-11-30T21:49:14.692Z,-0.69
2023-11-30T21:54:21.093Z,-0.81
2023-11-30T21:59:27.588Z,-0.89
2023-11-30T22:04:34.360Z,-0.84
2023-11-30T22:09:40.706Z,-0.96
2023-11-30T22:14:47.404Z,-0.85
2023-11-30T22:19:53.834Z,-0.74
2023-11-30T22:25:00.451Z,-0.68
2023-11-30T22:30:07.000Z,-0.71
2023-11-30T22:35:13.404Z,-0.87
2023-11-30T22:40:19.783Z,-0.97
2023-11-30T22:45:26.411Z,-1.08
2023-11-30T22:50:32.999Z,-1.22
2023-11-30T22:55:39.536Z,-1.32
2023-11-30T23:00:49.055Z,-1.41
2023-11-30T23:05:56.687Z,-1.31
2023-11-30T23:11:03.191Z,-1.22
2023-11-30T23:16:09.785Z,-1
2023-11-30T23:21:17.511Z,-0.78
2023-11-30T23:26:24.136Z,-0.71
2023-11-30T23:31:30.613Z,-0.68
2023-11-30T23:36:36.899Z,-0.67
2023-11-30T23:41:43.697Z,-0.68
2023-11-30T23:46:50.259Z,-0.63
2023-11-30T23:51:56.785Z,-0.6
2023-11-30T23:57:03.180Z,-0.56
